Time;durP1;ratioP1;P1;durP2;ratioP2;P2;SDS_P1;SDS_P2;PMS_P1;PMS_P2;Temp;Humidity;BMP_temperature;BMP_pressure;BME280_temperature;BME280_humidity;BME280_pressure;Samples;Min_cycle;Max_cycle;Signal;HPM_P1;HPM_P2
2022/10/21 00:00:49;;;;;;;813.97;744.63;;;13.60;99.90;;;;;;4999276;28;20516;-85
2022/10/21 00:03:16;;;;;;;812.93;742.60;;;13.60;99.90;;;;;;4999403;28;21026;-85
2022/10/21 00:05:43;;;;;;;810.53;739.43;;;13.50;99.90;;;;;;5007006;28;20469;-85
2022/10/21 00:08:10;;;;;;;811.17;739.57;;;13.40;99.90;;;;;;5012903;28;20470;-84
2022/10/21 00:10:37;;;;;;;808.33;736.00;;;13.50;99.90;;;;;;5012737;28;20464;-85
2022/10/21 00:13:05;;;;;;;799.13;725.87;;;13.40;99.90;;;;;;5012376;28;20453;-84
2022/10/21 00:15:31;;;;;;;788.40;715.27;;;13.50;99.90;;;;;;5008203;28;20454;-85
2022/10/21 00:17:58;;;;;;;782.17;708.07;;;13.40;99.90;;;;;;4998044;28;20964;-85
2022/10/21 00:20:25;;;;;;;790.17;715.27;;;13.50;99.90;;;;;;4998634;28;20461;-85
2022/10/21 00:22:51;;;;;;;797.53;722.33;;;13.50;99.90;;;;;;4997878;28;20462;-85
2022/10/21 00:25:18;;;;;;;781.33;705.63;;;13.50;99.90;;;;;;4998075;28;20458;-84
2022/10/21 00:27:45;;;;;;;781.53;706.07;;;13.40;99.90;;;;;;4997777;28;20855;-84
2022/10/21 00:30:13;;;;;;;797.27;721.40;;;13.40;99.90;;;;;;4998312;28;20493;-85
2022/10/21 00:32:40;;;;;;;805.33;727.43;;;13.50;99.90;;;;;;4998069;28;20465;-85
2022/10/21 00:35:07;;;;;;;777.30;700.57;;;13.40;99.90;;;;;;4997601;28;20485;-85
2022/10/21 00:37:34;;;;;;;785.77;708.10;;;13.30;99.90;;;;;;4999096;28;20494;-85
2022/10/21 00:40:00;;;;;;;768.43;690.70;;;13.30;99.90;;;;;;4998356;28;20458;-85
2022/10/21 00:42:32;;;;;;;773.67;695.50;;;13.30;99.90;;;;;;4998023;28;20837;-85
2022/10/21 00:45:30;;;;;;;762.00;683.93;;;13.20;99.90;;;;;;4997680;28;20505;-84
2022/10/21 00:48:02;;;;;;;757.20;678.33;;;13.00;99.90;;;;;;4937469;29;20453;-85
2022/10/21 00:50:33;;;;;;;790.03;711.50;;;13.00;99.90;;;;;;4986197;28;20462;-85
2022/10/21 00:53:02;;;;;;;772.73;692.87;;;13.00;99.90;;;;;;4998046;28;20476;-84
2022/10/21 00:55:32;;;;;;;756.27;675.93;;;12.90;99.90;;;;;;4999542;28;20454;-85
2022/10/21 00:57:59;;;;;;;741.90;661.60;;;12.90;99.90;;;;;;5002551;28;20468;-85
2022/10/21 01:00:26;;;;;;;748.10;666.90;;;12.90;99.90;;;;;;5001393;28;20465;-85
2022/10/21 01:02:54;;;;;;;742.97;661.23;;;12.90;99.90;;;;;;5002231;28;20454;-85
2022/10/21 01:05:22;;;;;;;749.93;666.60;;;13.10;99.90;;;;;;5001467;28;20465;-86
2022/10/21 01:07:49;;;;;;;763.43;681.13;;;13.00;99.90;;;;;;5002315;28;20458;-85
2022/10/21 01:10:17;;;;;;;778.23;694.57;;;13.10;99.90;;;;;;5001939;28;20862;-85
2022/10/21 01:12:55;;;;;;;769.13;685.27;;;13.10;99.90;;;;;;5001666;28;20469;-85
2022/10/21 01:15:27;;;;;;;753.97;670.90;;;13.00;99.90;;;;;;5000769;28;20465;-85
2022/10/21 01:18:04;;;;;;;765.30;668.87;;;12.90;99.90;;;;;;5001326;28;20458;-85
2022/10/21 01:21:08;;;;;;;767.73;682.70;;;12.90;99.90;;;;;;5001525;28;20457;-85
2022/10/21 01:24:03;;;;;;;801.67;716.10;;;12.90;99.90;;;;;;4940691;29;20455;-85
2022/10/21 01:26:55;;;;;;;769.10;664.30;;;12.90;99.90;;;;;;5001519;28;20485;-85
2022/10/21 01:29:43;;;;;;;769.23;676.43;;;12.90;99.90;;;;;;5001330;28;20866;-85
2022/10/21 01:32:20;;;;;;;764.33;672.23;;;12.70;99.90;;;;;;5001422;28;20465;-85
2022/10/21 01:34:55;;;;;;;770.83;644.70;;;12.60;99.90;;;;;;5000761;28;20561;-85
2022/10/21 01:37:27;;;;;;;767.53;670.50;;;12.60;99.90;;;;;;5001947;28;20492;-85
2022/10/21 01:39:57;;;;;;;769.57;658.33;;;12.70;99.90;;;;;;5001082;28;20458;-85
2022/10/21 01:42:30;;;;;;;769.50;675.33;;;12.60;99.90;;;;;;5000789;28;20453;-85
2022/10/21 01:45:02;;;;;;;774.30;672.37;;;12.70;99.90;;;;;;5001309;28;20438;-85
2022/10/21 01:47:34;;;;;;;770.27;663.50;;;12.80;99.90;;;;;;5000639;28;20538;-85
2022/10/21 01:50:09;;;;;;;781.87;696.27;;;12.90;99.90;;;;;;5001639;28;20490;-85
2022/10/21 01:52:36;;;;;;;771.10;681.20;;;13.00;99.90;;;;;;5000535;28;20438;-85
2022/10/21 01:55:08;;;;;;;772.20;682.23;;;13.00;99.90;;;;;;5000054;28;20536;-84
2022/10/21 01:57:40;;;;;;;781.10;695.57;;;13.00;99.90;;;;;;5000638;28;20474;-85
2022/10/21 02:00:18;;;;;;;772.77;685.47;;;13.00;99.90;;;;;;5000796;28;20489;-84
2022/10/21 02:02:49;;;;;;;802.67;716.47;;;13.00;99.90;;;;;;5000045;28;20458;-85
2022/10/21 02:05:18;;;;;;;783.53;697.47;;;12.90;99.90;;;;;;5000736;28;20458;-85
2022/10/21 02:07:45;;;;;;;805.17;718.23;;;13.00;99.90;;;;;;5000488;28;20470;-85
2022/10/21 02:10:12;;;;;;;801.30;714.53;;;13.00;99.90;;;;;;5000248;28;20481;-85
2022/10/21 02:12:41;;;;;;;778.73;686.57;;;12.90;99.90;;;;;;5000221;28;20450;-83
2022/10/21 02:15:11;;;;;;;768.00;671.60;;;12.90;99.90;;;;;;4999766;28;20462;-85
2022/10/21 02:17:42;;;;;;;790.37;705.10;;;13.00;99.90;;;;;;4999971;28;20474;-85
2022/10/21 02:20:13;;;;;;;797.67;712.47;;;13.00;99.90;;;;;;5000654;28;20452;-85
2022/10/21 02:22:43;;;;;;;802.17;716.37;;;13.00;99.90;;;;;;5000070;28;20457;-85
2022/10/21 02:25:17;;;;;;;772.27;687.57;;;13.00;99.90;;;;;;5000035;28;20987;-85
2022/10/21 02:27:44;;;;;;;771.03;682.07;;;13.00;99.90;;;;;;4999983;28;20983;-85
2022/10/21 02:30:11;;;;;;;790.67;704.37;;;12.80;99.90;;;;;;5000192;28;20482;-86
2022/10/21 02:32:45;;;;;;;774.90;669.33;;;12.80;99.90;;;;;;5000337;28;20457;-85
2022/10/21 02:35:23;;;;;;;772.67;659.97;;;12.80;99.90;;;;;;4999469;28;20835;-85
2022/10/21 02:37:57;;;;;;;769.97;681.20;;;12.80;99.90;;;;;;5000107;28;20977;-85
2022/10/21 02:40:28;;;;;;;774.67;673.80;;;12.70;99.90;;;;;;5000276;28;20454;-85
2022/10/21 02:42:59;;;;;;;775.27;684.50;;;12.80;99.90;;;;;;5000175;28;20454;-85
2022/10/21 02:45:27;;;;;;;764.23;644.27;;;12.80;99.90;;;;;;4999587;28;20476;-84
2022/10/21 02:47:54;;;;;;;774.57;654.80;;;12.80;99.90;;;;;;5000697;28;20509;-84
2022/10/21 02:50:22;;;;;;;775.67;689.77;;;12.70;99.90;;;;;;4999733;28;20486;-85
2022/10/21 02:52:48;;;;;;;776.80;665.70;;;12.70;99.90;;;;;;4999490;28;20464;-85
2022/10/21 02:55:15;;;;;;;767.50;651.30;;;12.70;99.90;;;;;;4999207;28;20454;-85
2022/10/21 02:57:42;;;;;;;766.87;668.07;;;12.60;99.90;;;;;;4999234;28;20485;-85
2022/10/21 03:00:10;;;;;;;766.30;669.37;;;12.60;99.90;;;;;;4999567;28;20454;-85
2022/10/21 03:02:36;;;;;;;763.90;667.47;;;12.70;99.90;;;;;;4999482;28;20466;-85
2022/10/21 03:05:04;;;;;;;770.90;685.63;;;12.80;99.90;;;;;;4999430;28;20454;-85
2022/10/21 03:07:32;;;;;;;775.57;689.87;;;12.80;99.90;;;;;;4998868;28;20485;-85
2022/10/21 03:09:58;;;;;;;785.80;700.43;;;12.80;99.90;;;;;;4999216;28;20482;-85
2022/10/21 03:12:25;;;;;;;779.33;693.83;;;12.80;99.90;;;;;;4999543;28;20458;-84
2022/10/21 03:14:52;;;;;;;777.33;674.27;;;12.70;99.90;;;;;;4999347;28;20458;-85
2022/10/21 03:17:18;;;;;;;772.77;681.00;;;12.60;99.90;;;;;;4998878;28;20481;-85
2022/10/21 03:19:45;;;;;;;764.83;650.47;;;12.60;99.90;;;;;;4998485;28;20813;-85
2022/10/21 03:22:12;;;;;;;772.60;673.90;;;12.60;99.90;;;;;;4999407;28;20461;-85
2022/10/21 03:24:40;;;;;;;774.33;671.00;;;12.70;99.90;;;;;;4998091;28;20467;-85
2022/10/21 03:27:06;;;;;;;771.03;677.43;;;12.60;99.90;;;;;;4999489;28;20473;-85
2022/10/21 03:29:33;;;;;;;770.90;685.63;;;12.60;99.90;;;;;;4999194;28;20485;-85
2022/10/21 03:32:00;;;;;;;771.07;686.30;;;12.70;99.90;;;;;;4999575;28;20458;-85
2022/10/21 03:34:26;;;;;;;773.60;668.23;;;12.60;99.90;;;;;;4998496;28;20450;-85
2022/10/21 03:36:53;;;;;;;774.30;671.43;;;12.60;99.90;;;;;;4998545;28;20485;-85
2022/10/21 03:39:20;;;;;;;770.27;683.70;;;12.50;99.90;;;;;;4998974;28;20458;-85
2022/10/21 03:41:49;;;;;;;776.00;673.53;;;12.40;99.90;;;;;;4998406;28;20458;-84
2022/10/21 03:44:16;;;;;;;758.67;650.37;;;12.60;99.90;;;;;;4998887;28;20458;-85
2022/10/21 03:46:42;;;;;;;754.30;654.17;;;12.50;99.90;;;;;;4998496;28;20469;-85
2022/10/21 03:49:09;;;;;;;766.57;669.50;;;12.70;99.90;;;;;;4998512;28;20910;-85
2022/10/21 03:51:36;;;;;;;776.70;691.90;;;12.60;99.90;;;;;;4998472;28;20485;-84
2022/10/21 03:54:03;;;;;;;770.73;678.67;;;12.70;99.90;;;;;;4998534;28;20465;-85
2022/10/21 03:56:30;;;;;;;762.60;676.03;;;12.70;99.90;;;;;;4998686;28;20478;-85
2022/10/21 03:58:58;;;;;;;762.90;668.47;;;12.60;99.90;;;;;;4998245;28;20815;-85
2022/10/21 04:01:25;;;;;;;759.97;673.73;;;12.70;99.90;;;;;;4998614;28;20964;-85
2022/10/21 04:03:52;;;;;;;759.17;675.00;;;12.80;99.90;;;;;;4998627;28;20454;-85
2022/10/21 04:06:19;;;;;;;765.07;668.73;;;12.80;99.90;;;;;;4998328;28;20472;-85
2022/10/21 04:08:45;;;;;;;766.93;671.57;;;12.80;99.90;;;;;;4999127;28;20462;-84
2022/10/21 04:11:12;;;;;;;768.50;683.20;;;12.70;99.90;;;;;;4998840;28;20482;-85
2022/10/21 04:13:39;;;;;;;785.73;700.73;;;12.70;99.90;;;;;;4997920;28;20456;-84
2022/10/21 04:16:10;;;;;;;760.13;674.00;;;12.70;99.90;;;;;;4998486;28;20478;-85
2022/10/21 04:18:37;;;;;;;769.13;683.73;;;12.70;99.90;;;;;;4998991;28;20458;-85
2022/10/21 04:21:04;;;;;;;772.70;676.93;;;12.80;99.90;;;;;;4999014;28;20872;-85
2022/10/21 04:23:31;;;;;;;772.80;687.37;;;12.80;99.90;;;;;;4998560;28;20460;-84
2022/10/21 04:25:57;;;;;;;762.50;669.13;;;12.90;99.90;;;;;;4998484;28;20476;-85
2022/10/21 04:28:24;;;;;;;764.30;677.40;;;12.90;99.90;;;;;;4999066;28;20453;-85
2022/10/21 04:30:51;;;;;;;766.57;682.50;;;12.90;99.90;;;;;;4998031;28;20481;-85
2022/10/21 04:33:19;;;;;;;770.77;686.60;;;13.00;99.90;;;;;;4999528;28;20549;-85
2022/10/21 04:35:46;;;;;;;772.40;676.27;;;13.00;99.90;;;;;;4999175;28;20545;-85
2022/10/21 04:38:13;;;;;;;760.07;676.07;;;13.10;99.90;;;;;;4999727;28;20825;-85
2022/10/21 04:40:40;;;;;;;760.53;678.07;;;13.00;99.90;;;;;;4998660;28;20454;-85
2022/10/21 04:43:07;;;;;;;762.73;678.90;;;13.10;99.90;;;;;;4998170;28;21014;-85
2022/10/21 04:45:34;;;;;;;772.47;689.00;;;13.10;99.90;;;;;;4998378;28;20463;-85
2022/10/21 04:48:01;;;;;;;765.03;681.57;;;13.20;99.90;;;;;;4998912;28;20995;-85
2022/10/21 04:50:29;;;;;;;753.67;668.07;;;13.20;99.90;;;;;;4998174;28;20575;-85
2022/10/21 04:52:57;;;;;;;756.00;672.10;;;13.30;99.90;;;;;;4998474;28;20462;-85
2022/10/21 04:55:24;;;;;;;773.80;691.60;;;13.20;99.90;;;;;;4998626;28;20495;-85
2022/10/21 04:57:50;;;;;;;773.33;690.03;;;13.30;99.90;;;;;;4998327;28;20454;-85
2022/10/21 05:00:17;;;;;;;784.37;701.13;;;13.40;99.90;;;;;;4998875;28;20453;-86
2022/10/21 05:02:44;;;;;;;774.77;691.03;;;13.30;99.90;;;;;;5000180;28;20460;-85
2022/10/21 05:05:11;;;;;;;768.07;685.37;;;13.30;99.90;;;;;;4999168;28;20458;-85
2022/10/21 05:07:39;;;;;;;806.10;722.13;;;13.30;99.90;;;;;;4998769;28;20496;-86
2022/10/21 05:10:07;;;;;;;800.90;717.77;;;13.30;99.90;;;;;;4998758;28;20478;-86
2022/10/21 05:12:33;;;;;;;805.97;723.87;;;13.20;99.90;;;;;;4998747;28;20978;-85
2022/10/21 05:15:01;;;;;;;780.40;698.07;;;13.20;99.90;;;;;;4998436;28;20454;-86
2022/10/21 05:17:27;;;;;;;770.37;687.77;;;13.10;99.90;;;;;;4998249;28;20478;-86
2022/10/21 05:19:54;;;;;;;799.33;718.03;;;13.10;99.90;;;;;;4998851;28;20469;-85
2022/10/21 05:22:21;;;;;;;790.63;709.23;;;13.10;99.90;;;;;;4998338;28;20480;-85
2022/10/21 05:24:49;;;;;;;768.03;687.77;;;13.10;99.90;;;;;;4997672;28;20956;-85
2022/10/21 05:27:16;;;;;;;753.50;672.77;;;13.10;99.90;;;;;;4998018;28;20474;-86
2022/10/21 05:29:42;;;;;;;768.10;687.00;;;13.20;99.90;;;;;;4997798;28;20477;-85
2022/10/21 05:32:09;;;;;;;787.80;706.97;;;13.10;99.90;;;;;;4998096;28;20458;-85
2022/10/21 05:34:36;;;;;;;779.33;698.97;;;13.20;99.90;;;;;;4998656;28;20465;-85
2022/10/21 05:37:04;;;;;;;785.70;705.73;;;13.30;99.90;;;;;;4998308;28;20486;-85
2022/10/21 05:39:34;;;;;;;792.03;711.60;;;13.20;99.90;;;;;;4998858;28;20457;-85
2022/10/21 05:42:02;;;;;;;777.17;696.97;;;13.30;99.90;;;;;;5001178;28;20466;-85
2022/10/21 05:44:28;;;;;;;776.30;696.47;;;13.30;99.90;;;;;;5001789;28;20461;-85
2022/10/21 05:46:55;;;;;;;779.90;701.00;;;13.30;99.90;;;;;;5001870;28;20474;-85
2022/10/21 05:49:22;;;;;;;783.63;704.23;;;13.40;99.90;;;;;;5001984;28;20462;-86
2022/10/21 05:51:49;;;;;;;770.77;692.03;;;13.40;99.90;;;;;;5003008;28;20482;-85
2022/10/21 05:54:16;;;;;;;787.47;709.23;;;13.40;99.90;;;;;;5001173;28;20833;-85
2022/10/21 05:56:42;;;;;;;764.73;688.33;;;13.40;99.90;;;;;;5001119;28;20991;-85
2022/10/21 05:59:11;;;;;;;776.73;699.57;;;13.40;99.90;;;;;;5001879;28;20465;-85
2022/10/21 06:01:40;;;;;;;770.80;695.50;;;13.40;99.90;;;;;;5001378;28;20450;-85
2022/10/21 06:04:07;;;;;;;763.57;688.80;;;13.40;99.90;;;;;;5001407;28;20461;-84
2022/10/21 06:06:34;;;;;;;782.23;706.97;;;13.30;99.90;;;;;;5001850;28;20478;-85
2022/10/21 06:09:00;;;;;;;772.33;697.37;;;13.30;99.90;;;;;;5002240;28;20465;-85
2022/10/21 06:11:27;;;;;;;770.57;695.87;;;13.30;99.90;;;;;;5001442;28;20484;-85
2022/10/21 06:13:54;;;;;;;762.27;687.10;;;13.30;99.90;;;;;;5000985;28;20462;-85
2022/10/21 06:16:22;;;;;;;759.90;685.53;;;13.30;99.90;;;;;;5001836;28;20498;-85
2022/10/21 06:18:48;;;;;;;753.47;679.47;;;13.30;99.90;;;;;;5001825;28;20458;-85
2022/10/21 06:21:15;;;;;;;756.50;681.57;;;13.30;99.90;;;;;;5001775;28;20457;-84
2022/10/21 06:23:42;;;;;;;751.70;676.10;;;13.30;99.90;;;;;;5000722;28;20458;-84
2022/10/21 06:26:11;;;;;;;763.77;688.47;;;13.30;99.90;;;;;;5001384;28;20474;-85
2022/10/21 06:28:40;;;;;;;755.60;680.10;;;13.30;99.90;;;;;;5001638;28;20462;-85
2022/10/21 06:31:08;;;;;;;747.33;671.27;;;13.30;99.90;;;;;;5001300;28;20482;-85
2022/10/21 06:33:36;;;;;;;742.07;666.37;;;13.40;99.90;;;;;;5000062;28;20464;-84
2022/10/21 06:36:02;;;;;;;746.27;670.17;;;13.30;99.90;;;;;;5001922;28;20489;-85
2022/10/21 06:38:31;;;;;;;764.27;688.60;;;13.40;99.90;;;;;;5001371;28;20870;-84
2022/10/21 06:41:01;;;;;;;765.63;690.83;;;13.40;99.90;;;;;;5005021;28;20447;-84
2022/10/21 06:43:28;;;;;;;779.10;703.10;;;13.40;99.90;;;;;;5015527;28;20457;-83
2022/10/21 06:45:59;;;;;;;772.50;697.17;;;13.40;99.90;;;;;;5015583;28;20478;-84
2022/10/21 06:48:26;;;;;;;769.83;695.13;;;13.50;99.90;;;;;;5015423;28;20463;-84
2022/10/21 06:50:58;;;;;;;772.17;697.93;;;13.50;99.90;;;;;;5013263;28;20478;-84
2022/10/21 06:53:25;;;;;;;764.17;689.97;;;13.50;99.90;;;;;;5001118;28;20453;-85
2022/10/21 06:56:00;;;;;;;761.67;687.67;;;13.50;99.90;;;;;;5002870;28;20485;-84
2022/10/21 06:58:27;;;;;;;760.43;686.87;;;13.50;99.90;;;;;;5001745;28;20536;-85
2022/10/21 07:00:54;;;;;;;761.47;687.77;;;13.50;99.90;;;;;;4999122;28;20446;-83
2022/10/21 07:03:20;;;;;;;754.03;680.57;;;13.60;99.90;;;;;;4999765;28;20454;-83
2022/10/21 07:05:47;;;;;;;764.80;691.27;;;13.60;99.90;;;;;;5000519;28;20491;-83
2022/10/21 07:08:16;;;;;;;758.87;685.87;;;13.60;99.90;;;;;;4999789;28;20458;-83
2022/10/21 07:10:44;;;;;;;748.70;675.23;;;13.70;99.90;;;;;;4984535;28;20474;-81
2022/10/21 07:13:11;;;;;;;811.07;737.40;;;13.70;99.90;;;;;;4999165;28;20458;-82
2022/10/21 07:15:38;;;;;;;808.00;735.40;;;13.70;99.90;;;;;;5000213;28;20465;-83
2022/10/21 07:18:05;;;;;;;751.40;677.63;;;13.70;99.90;;;;;;4999093;28;20453;-81
2022/10/21 07:20:33;;;;;;;763.20;689.63;;;13.70;99.90;;;;;;4998679;28;20956;-81
2022/10/21 07:23:00;;;;;;;751.10;678.23;;;13.70;99.90;;;;;;4998194;28;20843;-80
2022/10/21 07:25:28;;;;;;;734.20;661.07;;;13.70;99.90;;;;;;4997314;28;20463;-85
2022/10/21 07:27:55;;;;;;;730.90;656.93;;;13.70;99.90;;;;;;4998419;28;20454;-84
2022/10/21 07:30:22;;;;;;;725.77;650.50;;;13.70;99.90;;;;;;4998028;28;20482;-82
2022/10/21 07:32:48;;;;;;;747.67;672.60;;;13.80;99.90;;;;;;4997612;28;20454;-82
2022/10/21 07:35:15;;;;;;;758.27;682.90;;;13.80;99.90;;;;;;4995878;28;20948;-81
2022/10/21 07:37:42;;;;;;;773.50;698.20;;;13.90;99.90;;;;;;4996800;28;21005;-83
2022/10/21 07:40:11;;;;;;;766.03;690.73;;;13.90;99.90;;;;;;4997512;28;20469;-82
2022/10/21 07:42:39;;;;;;;772.87;697.60;;;13.80;99.90;;;;;;4996513;28;20458;-82
2022/10/21 07:45:06;;;;;;;778.20;702.27;;;13.90;99.90;;;;;;4996960;28;20454;-81
2022/10/21 07:47:33;;;;;;;778.67;702.87;;;13.90;99.90;;;;;;4996542;28;20474;-82
2022/10/21 07:49:59;;;;;;;775.73;699.93;;;13.90;99.90;;;;;;4996781;28;20465;-82
2022/10/21 07:52:26;;;;;;;817.43;741.43;;;13.90;99.90;;;;;;4996482;28;20486;-83
2022/10/21 07:54:53;;;;;;;796.53;720.47;;;13.90;99.90;;;;;;4996839;28;20954;-82
2022/10/21 07:57:20;;;;;;;787.43;711.47;;;13.90;99.90;;;;;;4996727;28;20478;-82
2022/10/21 07:59:48;;;;;;;793.40;717.27;;;13.90;99.90;;;;;;4996575;28;20792;-83
2022/10/21 08:02:15;;;;;;;779.07;704.07;;;14.00;99.90;;;;;;4996506;28;20458;-82
2022/10/21 08:04:41;;;;;;;757.30;682.03;;;14.00;99.90;;;;;;4995831;28;20948;-82
2022/10/21 08:07:08;;;;;;;749.43;674.70;;;14.00;99.90;;;;;;4996174;28;20477;-82
2022/10/21 08:09:35;;;;;;;747.83;673.37;;;14.00;99.90;;;;;;4996099;28;21059;-81
2022/10/21 08:12:02;;;;;;;759.17;684.50;;;14.10;99.90;;;;;;4996442;28;20505;-82
2022/10/21 08:14:28;;;;;;;753.27;678.27;;;14.10;99.90;;;;;;4996129;28;20458;-81
2022/10/21 08:16:56;;;;;;;748.60;672.50;;;14.00;99.90;;;;;;4996255;28;20478;-82
2022/10/21 08:19:28;;;;;;;751.03;675.47;;;14.00;99.90;;;;;;4996283;28;20832;-82
2022/10/21 08:21:55;;;;;;;753.77;677.77;;;14.10;99.90;;;;;;4996019;28;20458;-81
2022/10/21 08:24:23;;;;;;;752.60;676.40;;;14.10;99.90;;;;;;4995384;28;20454;-82
2022/10/21 08:26:50;;;;;;;745.13;669.30;;;14.10;99.90;;;;;;4995796;28;20474;-81
2022/10/21 08:29:17;;;;;;;746.77;671.07;;;14.10;99.90;;;;;;4995890;28;20469;-82
2022/10/21 08:31:44;;;;;;;735.20;659.07;;;14.10;99.90;;;;;;4995919;28;20478;-82
2022/10/21 08:34:12;;;;;;;723.10;646.10;;;14.20;99.90;;;;;;4994570;28;20461;-81
2022/10/21 08:36:39;;;;;;;726.17;650.67;;;14.20;99.90;;;;;;4995952;28;20481;-82
2022/10/21 08:39:06;;;;;;;730.83;654.57;;;14.20;99.90;;;;;;4995865;28;20461;-82
2022/10/21 08:41:56;;;;;;;725.23;648.97;;;14.20;99.90;;;;;;4995981;28;20456;-82
2022/10/21 08:44:29;;;;;;;725.97;648.93;;;14.20;99.90;;;;;;4995509;28;20458;-82
2022/10/21 08:47:02;;;;;;;723.03;646.40;;;14.20;99.90;;;;;;4996005;28;20481;-81
2022/10/21 08:49:37;;;;;;;724.00;648.00;;;14.20;99.90;;;;;;4995957;28;20458;-82
2022/10/21 08:52:07;;;;;;;733.40;657.40;;;14.20;99.90;;;;;;4995598;28;20484;-81
2022/10/21 08:54:40;;;;;;;743.13;667.23;;;14.20;99.90;;;;;;4995877;28;20461;-83
2022/10/21 08:57:10;;;;;;;753.23;676.57;;;14.20;99.90;;;;;;4996866;28;20481;-81
2022/10/21 08:59:40;;;;;;;739.30;662.30;;;14.30;99.90;;;;;;4995597;28;20481;-82
2022/10/21 09:02:29;;;;;;;738.43;661.57;;;14.20;99.90;;;;;;4995996;28;20835;-82
2022/10/21 09:05:14;;;;;;;738.07;660.70;;;14.30;99.90;;;;;;4996300;28;20508;-83
2022/10/21 09:07:49;;;;;;;738.77;661.07;;;14.30;99.90;;;;;;4996380;28;20477;-83
2022/10/21 09:10:25;;;;;;;734.30;656.33;;;14.30;99.90;;;;;;4996474;28;20457;-83
2022/10/21 09:13:02;;;;;;;735.53;657.97;;;14.40;99.90;;;;;;4996305;28;20485;-83
2022/10/21 09:15:37;;;;;;;728.80;651.30;;;14.40;99.90;;;;;;4995758;28;20454;-83
2022/10/21 09:18:20;;;;;;;742.37;663.37;;;14.50;99.90;;;;;;5000144;28;20457;-84
2022/10/21 09:21:00;;;;;;;744.97;665.87;;;14.50;99.90;;;;;;5000938;28;20461;-83
2022/10/21 09:23:49;;;;;;;754.27;675.60;;;14.60;99.90;;;;;;4999573;28;20830;-83
2022/10/21 09:26:27;;;;;;;756.23;677.03;;;14.60;99.90;;;;;;5000101;28;20901;-83
2022/10/21 09:28:54;;;;;;;751.40;671.90;;;14.60;99.90;;;;;;5000544;28;20450;-83
2022/10/21 09:31:21;;;;;;;760.13;680.73;;;14.70;99.90;;;;;;4999996;28;20899;-83
2022/10/21 09:33:53;;;;;;;759.73;680.37;;;14.70;99.90;;;;;;4998917;28;20453;-83
2022/10/21 09:36:26;;;;;;;762.17;683.07;;;14.70;99.90;;;;;;4999820;28;20488;-83
2022/10/21 09:38:58;;;;;;;757.27;678.37;;;14.70;99.90;;;;;;5000647;28;20469;-83
2022/10/21 09:41:29;;;;;;;755.10;676.57;;;14.70;99.90;;;;;;5000090;28;20454;-83
2022/10/21 09:43:56;;;;;;;743.77;666.60;;;14.70;99.90;;;;;;5000026;28;20450;-83
2022/10/21 09:46:23;;;;;;;755.03;678.40;;;14.70;99.90;;;;;;4999619;28;20481;-82
2022/10/21 09:48:52;;;;;;;753.70;678.03;;;14.70;99.90;;;;;;4999451;28;20464;-83
2022/10/21 09:51:24;;;;;;;750.30;674.00;;;14.70;99.90;;;;;;4999102;28;20482;-83
2022/10/21 09:53:53;;;;;;;750.27;673.57;;;14.80;99.90;;;;;;4998883;28;20956;-83
2022/10/21 09:56:24;;;;;;;737.97;660.67;;;14.90;99.90;;;;;;4999532;28;20477;-83
2022/10/21 09:59:02;;;;;;;739.73;663.43;;;15.00;99.90;;;;;;4999607;28;20446;-83
2022/10/21 10:01:29;;;;;;;740.70;665.03;;;15.00;99.90;;;;;;4999219;28;20453;-83
2022/10/21 10:03:56;;;;;;;733.83;659.83;;;15.00;99.90;;;;;;4999182;28;20453;-83
2022/10/21 10:06:35;;;;;;;745.80;671.90;;;14.90;99.90;;;;;;4999476;28;20485;-83
2022/10/21 10:09:08;;;;;;;741.37;667.30;;;14.90;99.90;;;;;;4999735;28;20469;-83
2022/10/21 10:11:49;;;;;;;737.20;663.40;;;15.00;99.90;;;;;;4999568;28;20474;-83
2022/10/21 10:14:25;;;;;;;739.30;665.30;;;15.00;99.90;;;;;;4999213;28;20458;-82
2022/10/21 10:16:51;;;;;;;749.70;675.90;;;14.90;99.90;;;;;;4999231;28;20473;-84
2022/10/21 10:19:20;;;;;;;741.17;668.83;;;14.90;99.90;;;;;;4998753;28;20469;-84
2022/10/21 10:22:07;;;;;;;731.50;658.87;;;14.90;99.90;;;;;;4997218;28;20481;-83
2022/10/21 10:24:34;;;;;;;738.70;665.97;;;14.90;99.90;;;;;;4998026;28;20947;-82
2022/10/21 10:27:05;;;;;;;742.67;669.60;;;14.80;99.90;;;;;;4997953;28;20911;-83
2022/10/21 10:29:33;;;;;;;742.13;669.13;;;14.80;99.90;;;;;;4997700;28;20505;-83
2022/10/21 10:32:01;;;;;;;728.27;655.90;;;14.80;99.90;;;;;;4997812;28;20524;-83
2022/10/21 10:34:34;;;;;;;731.40;658.40;;;14.90;99.90;;;;;;4996783;28;20465;-82
2022/10/21 10:37:06;;;;;;;720.27;647.40;;;15.00;99.90;;;;;;4981384;28;20483;-83
2022/10/21 10:39:36;;;;;;;703.80;632.10;;;15.00;99.90;;;;;;4977349;28;20466;-83
2022/10/21 10:42:04;;;;;;;713.27;641.17;;;15.10;99.90;;;;;;4979274;28;20462;-83
2022/10/21 10:44:35;;;;;;;715.30;643.70;;;15.20;99.90;;;;;;4978761;28;20478;-83
2022/10/21 10:47:05;;;;;;;717.47;646.67;;;15.30;99.90;;;;;;4978511;28;20996;-83
2022/10/21 10:49:39;;;;;;;723.87;653.37;;;15.30;99.90;;;;;;4978818;28;20467;-83
2022/10/21 10:52:20;;;;;;;716.77;647.00;;;15.30;99.90;;;;;;4978867;28;20483;-83
2022/10/21 10:54:47;;;;;;;709.00;639.93;;;15.40;99.90;;;;;;4979054;28;20519;-84
2022/10/21 10:57:17;;;;;;;708.47;640.37;;;15.50;99.90;;;;;;4978960;28;20478;-83
2022/10/21 10:59:46;;;;;;;702.97;635.10;;;15.60;99.90;;;;;;4979190;28;20460;-83
2022/10/21 11:02:25;;;;;;;706.03;639.93;;;15.60;99.90;;;;;;4978972;28;20478;-83
2022/10/21 11:05:16;;;;;;;709.77;645.70;;;15.80;99.90;;;;;;4978015;28;20459;-83
2022/10/21 11:07:48;;;;;;;710.13;646.10;;;15.90;99.90;;;;;;4976173;28;20488;-83
2022/10/21 11:10:28;;;;;;;705.83;643.63;;;16.10;99.90;;;;;;4981240;28;20456;-83
2022/10/21 11:12:54;;;;;;;696.10;635.50;;;16.30;99.90;;;;;;4978075;28;20508;-83
2022/10/21 11:15:25;;;;;;;706.33;648.60;;;16.60;99.90;;;;;;4978373;28;20461;-83
2022/10/21 11:17:59;;;;;;;702.43;651.03;;;16.80;99.90;;;;;;4978524;28;20467;-83
2022/10/21 11:20:33;;;;;;;697.07;650.30;;;17.00;99.90;;;;;;4978431;28;20468;-84
2022/10/21 11:23:15;;;;;;;666.40;629.13;;;17.10;99.90;;;;;;4977931;28;20464;-82
2022/10/21 11:25:47;;;;;;;593.73;565.43;;;17.20;99.90;;;;;;4978150;28;20454;-83
2022/10/21 11:28:25;;;;;;;553.57;529.27;;;17.40;99.90;;;;;;4978275;28;20468;-83
2022/10/21 11:31:04;;;;;;;476.17;457.67;;;17.50;99.90;;;;;;4977946;28;20457;-83
2022/10/21 11:33:43;;;;;;;379.23;365.33;;;17.70;99.90;;;;;;4977268;28;21043;-83
2022/10/21 11:36:19;;;;;;;309.70;299.17;;;17.90;99.90;;;;;;4977867;28;20482;-83
2022/10/21 11:39:20;;;;;;;177.03;170.90;;;18.00;99.90;;;;;;4977164;28;20502;-83
2022/10/21 11:41:53;;;;;;;98.03;94.33;;;18.10;99.90;;;;;;4978104;28;20448;-83
2022/10/21 11:44:25;;;;;;;47.23;44.93;;;18.10;99.90;;;;;;4977302;28;20460;-83
2022/10/21 11:47:05;;;;;;;69.60;67.03;;;18.30;99.90;;;;;;4978237;28;20487;-83
2022/10/21 11:49:49;;;;;;;179.17;173.43;;;18.70;99.90;;;;;;4977875;28;20460;-84
2022/10/21 11:52:26;;;;;;;14.07;13.20;;;19.30;99.90;;;;;;4978077;28;20479;-83
2022/10/21 11:55:33;;;;;;;8.30;6.70;;;19.60;99.90;;;;;;4977299;28;20506;-83
2022/10/21 11:58:09;;;;;;;7.70;3.70;;;20.10;99.90;;;;;;4978543;28;20972;-83
2022/10/21 12:00:44;;;;;;;6.10;2.50;;;20.70;99.90;;;;;;4977317;28;20978;-85
2022/10/21 12:03:40;;;;;;;5.50;2.30;;;21.00;99.90;;;;;;4977773;28;20463;-83
2022/10/21 12:06:20;;;;;;;5.85;2.47;;;22.00;99.90;;;;;;4979823;28;20458;-83
2022/10/21 12:08:55;;;;;;;6.40;1.90;;;22.20;99.90;;;;;;4977613;28;20202;-84
2022/10/21 12:11:28;;;;;;;4.00;1.70;;;22.10;99.90;;;;;;4978341;28;20692;-83
2022/10/21 12:14:04;;;;;;;5.30;1.63;;;22.20;99.90;;;;;;4977933;28;20458;-84
2022/10/21 12:16:33;;;;;;;7.55;2.60;;;21.80;99.90;;;;;;4976796;28;20466;-84
2022/10/21 12:19:04;;;;;;;6.27;2.00;;;21.50;99.90;;;;;;4977827;28;20210;-84
2022/10/21 12:21:35;;;;;;;6.33;2.10;;;21.60;99.90;;;;;;4978957;28;20519;-84
2022/10/21 12:24:13;;;;;;;5.70;1.53;;;21.40;98.80;;;;;;4978556;28;20458;-84
2022/10/21 12:26:50;;;;;;;6.73;2.00;;;21.70;99.20;;;;;;4992758;28;20472;-84